Terminal Aerodrome Forecast
Issued by NWS

Home | Current Version | Previous Version | Text Only | Print | Product List | Glossary On
Versions: 1 2 3 4 5 6 7 8 9 10 11 12 13 14 15 16 17 18 19 20
000
FTUS41 KPBZ 202300
TAFHLG
TAF
KHLG 202320Z 2100/2124 19008KT P6SM -SHRA OVC050
     FM210300 22005KT 6SM BR VCSH OVC025
     FM210600 23004KT 5SM BR VCSH OVC015
      TEMPO 2108/2112 OVC008
     FM211500 28006KT P6SM -SHRA OVC025
     FM212100 29007KT P6SM -SHRA BKN035=

USA.gov is the U.S. government's official web portal to all federal, state and local government web resources and services.